Time;durP1;ratioP1;P1;durP2;ratioP2;P2;SDS_P1;SDS_P2;PMS_P1;PMS_P2;Temp;Humidity;BMP_temperature;BMP_pressure;BME280_temperature;BME280_humidity;BME280_pressure;Samples;Min_cycle;Max_cycle;Signal;HPM_P1;HPM_P2
2021/05/27 00:01:43;;;;;;;28.48;22.27;;;;;;;;;;5116146;28;20288;-69
2021/05/27 00:04:09;;;;;;;33.05;22.05;;;;;;;;;;5116076;28;20250;-69
2021/05/27 00:06:36;;;;;;;31.65;22.75;;;;;;;;;;5116636;28;20194;-68
2021/05/27 00:09:03;;;;;;;31.50;24.73;;;;;;;;;;5116256;28;20247;-68
2021/05/27 00:11:31;;;;;;;32.45;23.92;;;;;;;;;;5115978;28;20206;-68
2021/05/27 00:13:57;;;;;;;28.52;21.88;;;;;;;;;;5115516;28;20676;-68
2021/05/27 00:16:25;;;;;;;28.70;23.25;;;;;;;;;;5115931;28;20200;-68
2021/05/27 00:18:52;;;;;;;32.15;22.85;;;;;;;;;;5115372;28;20676;-69
2021/05/27 00:21:19;;;;;;;23.40;14.73;;;;;;;;;;5115747;28;20195;-69
2021/05/27 00:23:46;;;;;;;21.17;16.13;;;;;;;;;;5114333;28;20201;-68
2021/05/27 00:26:12;;;;;;;17.98;13.30;;;;;;;;;;5115518;28;20230;-69
2021/05/27 00:28:39;;;;;;;9.80;8.80;;;;;;;;;;5115836;28;20548;-68
2021/05/27 00:31:06;;;;;;;7.32;6.63;;;;;;;;;;5115736;28;20221;-69
2021/05/27 00:33:33;;;;;;;7.13;6.45;;;;;;;;;;5115220;28;20207;-68
2021/05/27 00:36:00;;;;;;;7.15;5.50;;;;;;;;;;5115801;28;20204;-68
2021/05/27 00:38:27;;;;;;;5.03;4.60;;;;;;;;;;5115092;28;20226;-68
2021/05/27 00:40:53;;;;;;;5.95;5.22;;;;;;;;;;5115036;28;20200;-69
2021/05/27 00:43:20;;;;;;;4.40;4.00;;;;;;;;;;5115427;28;20201;-68
2021/05/27 00:45:47;;;;;;;8.43;4.30;;;;;;;;;;5115298;28;20246;-68
2021/05/27 00:50:55;;;;;;;6.80;3.45;;;;;;;;;;5114053;28;20265;-69
2021/05/27 00:53:22;;;;;;;3.63;3.33;;;;;;;;;;5115084;28;20206;-68
2021/05/27 00:55:49;;;;;;;3.53;3.33;;;;;;;;;;5114996;28;20259;-68
2021/05/27 00:58:17;;;;;;;4.32;3.92;;;;;;;;;;5114848;28;20244;-68
2021/05/27 01:00:44;;;;;;;4.53;3.90;;;;;;;;;;5114756;28;20203;-68
2021/05/27 01:03:10;;;;;;;4.28;3.80;;;;;;;;;;5115073;28;20192;-68
2021/05/27 01:05:38;;;;;;;3.90;3.60;;;;;;;;;;5114390;28;20193;-68
2021/05/27 01:08:06;;;;;;;4.60;4.20;;;;;;;;;;5114839;28;20215;-68
2021/05/27 01:10:33;;;;;;;6.65;4.13;;;;;;;;;;5114656;28;20282;-68
2021/05/27 01:12:59;;;;;;;4.05;3.75;;;;;;;;;;5114905;28;20197;-69
2021/05/27 01:15:28;;;;;;;5.38;4.38;;;;;;;;;;5115282;28;20200;-68
2021/05/27 01:17:55;;;;;;;6.20;4.43;;;;;;;;;;5114169;28;20687;-68
2021/05/27 01:20:22;;;;;;;4.60;4.15;;;;;;;;;;5114464;28;20196;-68
2021/05/27 01:22:49;;;;;;;3.78;3.40;;;;;;;;;;5114633;28;20281;-68
2021/05/27 01:25:16;;;;;;;4.03;3.72;;;;;;;;;;5114206;28;20633;-68
2021/05/27 01:27:43;;;;;;;4.40;3.92;;;;;;;;;;5113964;28;20335;-69
2021/05/27 01:30:10;;;;;;;4.97;4.07;;;;;;;;;;5114033;28;20676;-68
2021/05/27 01:32:37;;;;;;;4.45;3.90;;;;;;;;;;5114265;28;20221;-68
2021/05/27 01:35:05;;;;;;;4.40;4.00;;;;;;;;;;5114127;28;20283;-68
2021/05/27 01:37:32;;;;;;;4.97;3.75;;;;;;;;;;5114399;28;20221;-69
2021/05/27 01:40:01;;;;;;;4.25;3.85;;;;;;;;;;5113953;28;20199;-68
2021/05/27 01:42:28;;;;;;;3.80;3.50;;;;;;;;;;5113884;28;20676;-68
2021/05/27 01:44:54;;;;;;;6.78;4.45;;;;;;;;;;5113856;28;20196;-67
2021/05/27 01:47:21;;;;;;;6.88;4.20;;;;;;;;;;5114360;28;20281;-68
2021/05/27 01:49:48;;;;;;;5.07;4.43;;;;;;;;;;5113846;28;20206;-68
2021/05/27 01:52:14;;;;;;;4.35;3.85;;;;;;;;;;5114322;28;20200;-69
2021/05/27 01:54:41;;;;;;;6.82;3.70;;;;;;;;;;5113686;28;20248;-68
2021/05/27 01:57:09;;;;;;;4.10;3.80;;;;;;;;;;5114114;28;20196;-70
2021/05/27 01:59:35;;;;;;;3.97;3.58;;;;;;;;;;5113723;28;20196;-69
2021/05/27 02:02:02;;;;;;;4.75;4.28;;;;;;;;;;5113943;28;20254;-68
2021/05/27 02:04:29;;;;;;;5.95;4.00;;;;;;;;;;5114088;28;20343;-68
2021/05/27 02:06:56;;;;;;;4.97;4.55;;;;;;;;;;5113913;28;20324;-69
2021/05/27 02:09:22;;;;;;;4.20;3.80;;;;;;;;;;5114032;28;20205;-69
2021/05/27 02:11:49;;;;;;;3.38;3.17;;;;;;;;;;5113623;28;20197;-69
2021/05/27 02:14:19;;;;;;;4.70;3.90;;;;;;;;;;5113575;28;20200;-69
2021/05/27 02:16:46;;;;;;;3.80;3.50;;;;;;;;;;5113821;28;20194;-69
2021/05/27 02:19:13;;;;;;;4.20;3.90;;;;;;;;;;5113466;28;20258;-69
2021/05/27 02:21:40;;;;;;;4.45;4.13;;;;;;;;;;5113624;28;20215;-69
2021/05/27 02:24:08;;;;;;;4.00;3.63;;;;;;;;;;5113989;28;20239;-69
2021/05/27 02:26:34;;;;;;;6.93;4.05;;;;;;;;;;5114124;28;20251;-69
2021/05/27 02:29:01;;;;;;;5.10;4.60;;;;;;;;;;5113909;28;20202;-70
2021/05/27 02:31:29;;;;;;;3.65;3.35;;;;;;;;;;5113412;28;20290;-69
2021/05/27 02:33:56;;;;;;;5.63;4.15;;;;;;;;;;5113628;28;20195;-69
2021/05/27 02:36:23;;;;;;;4.63;4.10;;;;;;;;;;5113685;28;20634;-69
2021/05/27 02:38:50;;;;;;;5.85;4.00;;;;;;;;;;5113203;28;20221;-69
2021/05/27 02:41:17;;;;;;;7.10;4.50;;;;;;;;;;5113716;28;20191;-70
2021/05/27 02:43:44;;;;;;;8.18;5.28;;;;;;;;;;5113533;28;20289;-69
2021/05/27 02:46:11;;;;;;;3.88;3.58;;;;;;;;;;5114872;28;20283;-69
2021/05/27 02:48:38;;;;;;;5.35;4.90;;;;;;;;;;5117780;28;20200;-69
2021/05/27 02:51:05;;;;;;;5.15;4.55;;;;;;;;;;5117634;28;20259;-69
2021/05/27 02:53:32;;;;;;;4.85;4.03;;;;;;;;;;5117507;28;20599;-70
2021/05/27 02:55:59;;;;;;;4.75;4.35;;;;;;;;;;5117161;28;20386;-69
2021/05/27 02:58:25;;;;;;;4.88;4.38;;;;;;;;;;5117716;28;20621;-70
2021/05/27 03:00:53;;;;;;;4.57;4.13;;;;;;;;;;5117700;28;20194;-70
2021/05/27 03:03:21;;;;;;;5.65;5.13;;;;;;;;;;5117019;28;20195;-70
2021/05/27 03:05:49;;;;;;;6.85;6.15;;;;;;;;;;5117435;28;20198;-70
2021/05/27 03:08:15;;;;;;;6.55;4.72;;;;;;;;;;5117806;28;20224;-70
2021/05/27 03:10:42;;;;;;;6.57;5.90;;;;;;;;;;5116831;28;20190;-69
2021/05/27 03:13:09;;;;;;;6.65;5.35;;;;;;;;;;5117079;28;20193;-69
2021/05/27 03:15:36;;;;;;;7.63;5.15;;;;;;;;;;5117307;28;20194;-70
2021/05/27 03:18:03;;;;;;;12.80;5.55;;;;;;;;;;5116964;28;20246;-69
2021/05/27 03:20:30;;;;;;;7.35;6.40;;;;;;;;;;5116697;28;20679;-69
2021/05/27 03:22:58;;;;;;;8.07;6.13;;;;;;;;;;5116943;28;20201;-68
2021/05/27 03:25:24;;;;;;;8.35;7.20;;;;;;;;;;5117417;28;20199;-69
2021/05/27 03:27:51;;;;;;;7.45;6.25;;;;;;;;;;5096542;28;20237;-68
2021/05/27 03:30:18;;;;;;;9.55;6.35;;;;;;;;;;5096541;28;20201;-69
2021/05/27 03:32:45;;;;;;;9.13;7.72;;;;;;;;;;5096068;28;20645;-69
2021/05/27 03:35:12;;;;;;;9.15;6.95;;;;;;;;;;5096084;28;20222;-68
2021/05/27 03:37:39;;;;;;;10.27;6.60;;;;;;;;;;5096391;28;20197;-69
2021/05/27 03:40:12;;;;;;;11.15;7.15;;;;;;;;;;5096266;28;20206;-68
2021/05/27 03:42:39;;;;;;;10.30;7.40;;;;;;;;;;5096420;28;20229;-69
2021/05/27 03:45:07;;;;;;;8.18;6.38;;;;;;;;;;5096327;28;20216;-69
2021/05/27 03:47:33;;;;;;;10.55;7.50;;;;;;;;;;5095740;28;20222;-69
2021/05/27 03:50:00;;;;;;;8.48;6.32;;;;;;;;;;5095642;28;20196;-68
2021/05/27 03:52:27;;;;;;;7.80;7.00;;;;;;;;;;5096320;28;20230;-69
2021/05/27 03:54:53;;;;;;;8.45;7.03;;;;;;;;;;5096071;28;20392;-69
2021/05/27 03:57:21;;;;;;;7.68;6.93;;;;;;;;;;5095502;28;20204;-70
2021/05/27 04:02:33;;;;;;;10.57;7.32;;;;;;;;;;5095690;28;20309;-68
2021/05/27 04:07:44;;;;;;;11.48;7.57;;;;;;;;;;5095803;28;20202;-69
2021/05/27 04:10:11;;;;;;;12.25;8.25;;;;;;;;;;5095358;28;20646;-69
2021/05/27 04:12:45;;;;;;;13.98;6.75;;;;;;;;;;5095297;28;20191;-70
2021/05/27 04:15:22;;;;;;;11.32;7.57;;;;;;;;;;5095661;28;20259;-71
2021/05/27 04:17:50;;;;;;;9.18;8.15;;;;;;;;;;5095706;28;20562;-69
2021/05/27 04:20:17;;;;;;;8.40;6.93;;;;;;;;;;5095966;28;20664;-69
2021/05/27 04:22:44;;;;;;;9.00;7.43;;;;;;;;;;5095111;28;20201;-68
2021/05/27 04:25:12;;;;;;;9.52;7.10;;;;;;;;;;5095067;28;20197;-69
2021/05/27 04:27:39;;;;;;;11.90;8.35;;;;;;;;;;5118627;27;20220;-69
2021/05/27 04:30:14;;;;;;;9.45;7.18;;;;;;;;;;5135186;27;20195;-69
2021/05/27 04:32:57;;;;;;;10.07;7.70;;;;;;;;;;5135744;27;20190;-69
2021/05/27 04:35:26;;;;;;;7.95;5.85;;;;;;;;;;5136788;27;20199;-69
2021/05/27 04:37:53;;;;;;;9.15;7.65;;;;;;;;;;5136003;27;20359;-69
2021/05/27 04:40:20;;;;;;;9.85;7.45;;;;;;;;;;5135652;27;20232;-69
2021/05/27 04:42:48;;;;;;;8.93;7.32;;;;;;;;;;5136448;27;20273;-69
2021/05/27 04:45:15;;;;;;;10.32;7.85;;;;;;;;;;5136283;27;20556;-68
2021/05/27 04:47:42;;;;;;;11.93;7.47;;;;;;;;;;5135790;27;20211;-69
2021/05/27 04:50:10;;;;;;;11.65;8.57;;;;;;;;;;5135722;27;20272;-69
2021/05/27 04:52:37;;;;;;;11.75;7.35;;;;;;;;;;5136928;27;20230;-69
2021/05/27 04:55:05;;;;;;;9.20;6.80;;;;;;;;;;5136541;27;20301;-69
2021/05/27 04:57:31;;;;;;;11.23;7.65;;;;;;;;;;5135652;27;20213;-69
2021/05/27 04:59:59;;;;;;;11.73;6.47;;;;;;;;;;5135513;27;20192;-69
2021/05/27 05:02:26;;;;;;;10.40;7.40;;;;;;;;;;5136365;27;20277;-69
2021/05/27 05:04:52;;;;;;;15.35;9.00;;;;;;;;;;5135579;27;20197;-69
2021/05/27 05:07:19;;;;;;;7.70;6.85;;;;;;;;;;5135516;27;20191;-69
2021/05/27 05:09:46;;;;;;;9.55;5.93;;;;;;;;;;5135353;27;20557;-69
2021/05/27 05:12:13;;;;;;;7.47;6.22;;;;;;;;;;5136213;27;20197;-69
2021/05/27 05:14:39;;;;;;;8.80;7.03;;;;;;;;;;5135508;27;20284;-69
2021/05/27 05:17:07;;;;;;;8.00;6.78;;;;;;;;;;5135144;27;20195;-69
2021/05/27 05:19:33;;;;;;;7.93;6.93;;;;;;;;;;5135487;27;20233;-69
2021/05/27 05:22:00;;;;;;;7.28;6.25;;;;;;;;;;5133915;27;20194;-69
2021/05/27 05:24:27;;;;;;;11.82;7.43;;;;;;;;;;5126515;27;20298;-69
2021/05/27 05:26:54;;;;;;;7.15;5.85;;;;;;;;;;5115230;28;20235;-69
2021/05/27 05:29:21;;;;;;;9.90;7.82;;;;;;;;;;5128220;27;20202;-69
2021/05/27 05:31:47;;;;;;;10.45;7.40;;;;;;;;;;5135070;27;20200;-69
2021/05/27 05:34:16;;;;;;;9.85;7.20;;;;;;;;;;5135220;27;20225;-69
2021/05/27 05:36:42;;;;;;;7.93;5.45;;;;;;;;;;5135493;27;20283;-69
2021/05/27 05:39:09;;;;;;;10.73;7.60;;;;;;;;;;5134841;27;20222;-69
2021/05/27 05:41:36;;;;;;;9.45;7.15;;;;;;;;;;5134446;27;20207;-69
2021/05/27 05:44:02;;;;;;;7.57;6.57;;;;;;;;;;5134971;27;20602;-72
2021/05/27 05:46:29;;;;;;;13.13;7.78;;;;;;;;;;5134971;27;20196;-73
2021/05/27 05:48:56;;;;;;;8.95;7.13;;;;;;;;;;5134934;27;20237;-71
2021/05/27 05:51:23;;;;;;;14.05;7.13;;;;;;;;;;5134543;27;20246;-71
2021/05/27 05:53:50;;;;;;;7.40;5.63;;;;;;;;;;5134511;27;20198;-71
2021/05/27 05:56:17;;;;;;;8.85;6.40;;;;;;;;;;5135396;27;20234;-71
2021/05/27 05:58:43;;;;;;;7.28;6.55;;;;;;;;;;5134941;27;20224;-70
2021/05/27 06:01:10;;;;;;;6.82;5.60;;;;;;;;;;5134908;27;20712;-71
2021/05/27 06:03:37;;;;;;;8.40;5.95;;;;;;;;;;5135548;27;20231;-71
2021/05/27 06:06:03;;;;;;;6.88;5.70;;;;;;;;;;5134506;27;20220;-73
2021/05/27 06:08:31;;;;;;;15.10;6.45;;;;;;;;;;5135045;27;20200;-71
2021/05/27 06:10:58;;;;;;;10.00;6.55;;;;;;;;;;5134741;27;20282;-71
2021/05/27 06:13:24;;;;;;;9.93;7.13;;;;;;;;;;5134672;27;20194;-71
2021/05/27 06:15:51;;;;;;;7.97;5.57;;;;;;;;;;5134162;28;20243;-71
2021/05/27 06:18:18;;;;;;;7.43;6.60;;;;;;;;;;5134635;28;20314;-69
2021/05/27 06:20:44;;;;;;;10.57;6.80;;;;;;;;;;5134377;27;20764;-70
2021/05/27 06:23:11;;;;;;;12.73;7.95;;;;;;;;;;5138560;27;20203;-70
2021/05/27 06:25:39;;;;;;;14.93;7.05;;;;;;;;;;5136718;27;20195;-70
2021/05/27 06:28:06;;;;;;;9.25;8.23;;;;;;;;;;5118943;28;20185;-70
2021/05/27 06:30:33;;;;;;;11.93;7.10;;;;;;;;;;5119250;28;20286;-70
2021/05/27 06:33:00;;;;;;;9.68;7.25;;;;;;;;;;5118043;28;20230;-70
2021/05/27 06:35:27;;;;;;;7.55;5.45;;;;;;;;;;5117971;28;20206;-70
2021/05/27 06:37:54;;;;;;;6.35;5.78;;;;;;;;;;5117747;28;20221;-71
2021/05/27 06:40:21;;;;;;;6.10;5.50;;;;;;;;;;5117388;28;20198;-71
2021/05/27 06:42:49;;;;;;;9.50;6.25;;;;;;;;;;5117948;28;20200;-72
2021/05/27 06:45:16;;;;;;;8.30;5.05;;;;;;;;;;5117684;28;20269;-71
2021/05/27 06:47:43;;;;;;;5.40;4.90;;;;;;;;;;5117668;28;20267;-71
2021/05/27 06:50:10;;;;;;;5.55;4.85;;;;;;;;;;5117533;28;20218;-70
2021/05/27 06:52:37;;;;;;;7.43;4.30;;;;;;;;;;5117476;28;20251;-71
2021/05/27 06:55:05;;;;;;;4.75;4.22;;;;;;;;;;5117415;28;20293;-73
2021/05/27 06:57:31;;;;;;;6.90;5.47;;;;;;;;;;5116981;28;20198;-70
2021/05/27 06:59:59;;;;;;;5.05;3.85;;;;;;;;;;5117292;28;20217;-72
2021/05/27 07:02:26;;;;;;;5.93;4.35;;;;;;;;;;5117264;28;20192;-72
2021/05/27 07:04:52;;;;;;;3.53;3.22;;;;;;;;;;5117202;28;20623;-72
2021/05/27 07:07:19;;;;;;;6.55;3.67;;;;;;;;;;5117220;28;20243;-72
2021/05/27 07:09:46;;;;;;;8.85;4.00;;;;;;;;;;5117370;28;20298;-71
2021/05/27 07:12:12;;;;;;;5.40;4.55;;;;;;;;;;5117460;28;20192;-71
2021/05/27 07:14:39;;;;;;;5.82;2.80;;;;;;;;;;5116655;28;20200;-72
2021/05/27 07:17:07;;;;;;;5.88;2.25;;;;;;;;;;5117006;28;20234;-72
2021/05/27 07:19:33;;;;;;;4.22;3.80;;;;;;;;;;5116730;28;20680;-71
2021/05/27 07:22:00;;;;;;;5.25;3.83;;;;;;;;;;5117053;28;20192;-71
2021/05/27 07:24:28;;;;;;;4.07;3.78;;;;;;;;;;5116564;28;20245;-71
2021/05/27 07:26:54;;;;;;;5.10;3.50;;;;;;;;;;5117101;28;20230;-71
2021/05/27 07:29:21;;;;;;;6.65;3.83;;;;;;;;;;5116785;28;20206;-71
2021/05/27 07:31:48;;;;;;;4.32;3.92;;;;;;;;;;5115873;28;20195;-72
2021/05/27 07:34:15;;;;;;;4.90;4.15;;;;;;;;;;5116354;28;20196;-71
2021/05/27 07:36:42;;;;;;;5.60;3.95;;;;;;;;;;5117022;28;20202;-71
2021/05/27 07:39:09;;;;;;;5.70;4.80;;;;;;;;;;5116476;28;20220;-72
2021/05/27 07:41:35;;;;;;;4.90;4.40;;;;;;;;;;5116440;28;20607;-71
2021/05/27 07:44:02;;;;;;;5.40;4.55;;;;;;;;;;5116745;28;20195;-71
2021/05/27 07:46:29;;;;;;;7.65;4.35;;;;;;;;;;5116219;28;20196;-71
2021/05/27 07:48:56;;;;;;;7.15;4.70;;;;;;;;;;5116341;28;20198;-71
2021/05/27 07:51:23;;;;;;;6.35;5.35;;;;;;;;;;5116172;28;20206;-71
2021/05/27 07:53:50;;;;;;;11.52;5.40;;;;;;;;;;5116259;28;20194;-70
2021/05/27 07:56:17;;;;;;;4.85;4.35;;;;;;;;;;5115850;28;20684;-71
2021/05/27 07:58:43;;;;;;;7.95;4.93;;;;;;;;;;5115707;28;20249;-71
2021/05/27 08:01:10;;;;;;;4.40;4.00;;;;;;;;;;5116446;28;20257;-72
2021/05/27 08:03:37;;;;;;;7.82;4.65;;;;;;;;;;5116428;28;20279;-71
2021/05/27 08:06:04;;;;;;;4.05;3.53;;;;;;;;;;5115700;28;20213;-70
2021/05/27 08:08:32;;;;;;;10.10;4.03;;;;;;;;;;5115968;28;20198;-70
2021/05/27 08:10:58;;;;;;;6.00;4.82;;;;;;;;;;5115581;28;20291;-71
2021/05/27 08:13:25;;;;;;;4.53;3.70;;;;;;;;;;5115520;28;20206;-71
2021/05/27 08:15:52;;;;;;;4.90;4.10;;;;;;;;;;5115397;28;20306;-71
2021/05/27 08:18:19;;;;;;;3.50;3.10;;;;;;;;;;5115545;28;20298;-72
2021/05/27 08:20:50;;;;;;;6.47;5.75;;;;;;;;;;5115797;28;20663;-71
2021/05/27 08:23:17;;;;;;;4.60;3.85;;;;;;;;;;5115549;28;20223;-72
2021/05/27 08:25:45;;;;;;;6.00;4.35;;;;;;;;;;5115450;28;20197;-71
2021/05/27 08:28:12;;;;;;;5.13;4.25;;;;;;;;;;5115756;28;20187;-71
2021/05/27 08:30:39;;;;;;;5.85;4.50;;;;;;;;;;5115573;28;20732;-70
2021/05/27 08:33:06;;;;;;;8.53;3.97;;;;;;;;;;5115580;28;20340;-72
2021/05/27 08:35:33;;;;;;;5.28;4.78;;;;;;;;;;5116506;28;20459;-72
2021/05/27 08:38:00;;;;;;;5.07;4.22;;;;;;;;;;5115435;28;20195;-71
2021/05/27 08:40:26;;;;;;;3.15;2.95;;;;;;;;;;5115293;28;20207;-71
2021/05/27 08:42:57;;;;;;;6.00;5.10;;;;;;;;;;5115295;28;20633;-70
2021/05/27 08:45:28;;;;;;;4.30;3.90;;;;;;;;;;5114301;28;20444;-71
2021/05/27 08:47:55;;;;;;;9.35;3.85;;;;;;;;;;5115614;28;20560;-72
2021/05/27 08:50:29;;;;;;;5.32;4.82;;;;;;;;;;5115213;28;20221;-71
2021/05/27 08:52:56;;;;;;;4.80;4.30;;;;;;;;;;5115410;28;20550;-71
2021/05/27 08:55:23;;;;;;;5.18;4.72;;;;;;;;;;5114880;28;20201;-71
2021/05/27 08:57:49;;;;;;;5.03;4.63;;;;;;;;;;5114738;28;20228;-70
2021/05/27 09:00:18;;;;;;;6.38;4.90;;;;;;;;;;5114878;28;20706;-71
2021/05/27 09:02:52;;;;;;;5.20;4.18;;;;;;;;;;5114989;28;20687;-71
2021/05/27 09:05:19;;;;;;;4.90;4.50;;;;;;;;;;5115151;28;20246;-71
2021/05/27 09:07:46;;;;;;;6.00;4.90;;;;;;;;;;5114777;28;20199;-70
2021/05/27 09:10:13;;;;;;;5.65;5.15;;;;;;;;;;5114494;28;20642;-71
2021/05/27 09:12:40;;;;;;;7.28;4.95;;;;;;;;;;5114792;28;20290;-71
2021/05/27 09:15:08;;;;;;;7.35;4.93;;;;;;;;;;5114322;28;20284;-71
2021/05/27 09:17:45;;;;;;;4.40;4.00;;;;;;;;;;5115180;28;20199;-71
2021/05/27 09:20:13;;;;;;;9.70;4.85;;;;;;;;;;5114881;28;20216;-71
2021/05/27 09:22:40;;;;;;;6.47;5.25;;;;;;;;;;5114259;28;20696;-71
2021/05/27 09:25:07;;;;;;;5.22;4.70;;;;;;;;;;5114383;28;20200;-72
2021/05/27 09:27:44;;;;;;;6.55;5.95;;;;;;;;;;5115273;28;20235;-72
2021/05/27 09:30:11;;;;;;;6.83;6.20;;;;;;;;;;5114114;28;20195;-72
2021/05/27 09:32:39;;;;;;;5.53;3.97;;;;;;;;;;5114518;28;20442;-72
2021/05/27 09:35:10;;;;;;;6.57;5.80;;;;;;;;;;5113955;28;20439;-71
2021/05/27 09:37:37;;;;;;;7.55;6.15;;;;;;;;;;5114668;28;20455;-71
2021/05/27 09:40:05;;;;;;;6.00;5.40;;;;;;;;;;5114064;28;20246;-71
2021/05/27 09:42:47;;;;;;;5.30;4.80;;;;;;;;;;5114547;28;20200;-73
2021/05/27 09:45:15;;;;;;;8.32;5.05;;;;;;;;;;5114225;28;20190;-70
2021/05/27 09:47:41;;;;;;;7.35;5.93;;;;;;;;;;5113755;28;20297;-70
2021/05/27 09:50:10;;;;;;;7.82;5.97;;;;;;;;;;5114047;28;20656;-69
2021/05/27 09:52:40;;;;;;;5.95;5.45;;;;;;;;;;5113744;28;20715;-71
2021/05/27 09:55:09;;;;;;;8.05;5.68;;;;;;;;;;5113476;28;20199;-70
2021/05/27 09:57:36;;;;;;;6.75;4.93;;;;;;;;;;5113762;28;20653;-70
2021/05/27 10:00:04;;;;;;;6.47;5.57;;;;;;;;;;5113719;28;20238;-70
2021/05/27 10:02:34;;;;;;;10.05;5.22;;;;;;;;;;5113647;28;20194;-70
2021/05/27 10:05:06;;;;;;;7.47;5.80;;;;;;;;;;5114470;28;20658;-69
2021/05/27 10:07:41;;;;;;;5.82;5.32;;;;;;;;;;5114101;28;20445;-69
2021/05/27 10:10:08;;;;;;;6.75;5.50;;;;;;;;;;5114018;28;20200;-69
2021/05/27 10:12:39;;;;;;;5.32;4.82;;;;;;;;;;5113418;28;20195;-69
2021/05/27 10:15:07;;;;;;;8.38;5.82;;;;;;;;;;5113925;28;20190;-69
2021/05/27 10:17:34;;;;;;;6.65;5.60;;;;;;;;;;5113402;28;20290;-70
2021/05/27 10:20:00;;;;;;;9.73;5.95;;;;;;;;;;5113896;28;20218;-70
2021/05/27 10:22:27;;;;;;;5.90;5.37;;;;;;;;;;5113697;28;20719;-70
2021/05/27 10:24:55;;;;;;;8.13;6.10;;;;;;;;;;5113318;28;20539;-70
2021/05/27 10:27:22;;;;;;;8.43;5.77;;;;;;;;;;5113809;28;20867;-71
2021/05/27 10:29:49;;;;;;;4.70;3.70;;;;;;;;;;5113459;28;20457;-71
2021/05/27 10:32:18;;;;;;;6.53;4.60;;;;;;;;;;5113947;28;20434;-70
2021/05/27 10:34:45;;;;;;;5.82;4.35;;;;;;;;;;5113403;28;20204;-70
2021/05/27 10:37:12;;;;;;;4.70;4.30;;;;;;;;;;5113417;28;20202;-71
2021/05/27 10:39:40;;;;;;;6.60;3.90;;;;;;;;;;5113205;28;20581;-71
2021/05/27 10:42:08;;;;;;;4.27;3.90;;;;;;;;;;5113235;28;20453;-70
2021/05/27 10:44:35;;;;;;;2.92;2.72;;;;;;;;;;5113549;28;20445;-70
2021/05/27 10:47:13;;;;;;;4.83;4.37;;;;;;;;;;5114195;28;20322;-72
2021/05/27 10:49:58;;;;;;;4.80;3.33;;;;;;;;;;5113743;28;20434;-70
2021/05/27 10:52:38;;;;;;;3.40;3.10;;;;;;;;;;5113432;28;20566;-72
2021/05/27 10:55:08;;;;;;;7.53;4.00;;;;;;;;;;5113381;28;20426;-70
2021/05/27 10:57:48;;;;;;;6.27;4.40;;;;;;;;;;5113048;28;20521;-71
2021/05/27 11:00:30;;;;;;;4.00;3.40;;;;;;;;;;5112981;28;20470;-71
2021/05/27 11:02:57;;;;;;;5.90;3.70;;;;;;;;;;5092773;28;20503;-70
2021/05/27 11:05:24;;;;;;;6.80;4.78;;;;;;;;;;5113815;28;20442;-71
2021/05/27 11:08:05;;;;;;;5.07;4.53;;;;;;;;;;5114585;28;20192;-71
2021/05/27 11:10:32;;;;;;;4.80;3.73;;;;;;;;;;5116592;28;20452;-71
2021/05/27 11:13:02;;;;;;;6.60;4.07;;;;;;;;;;5116653;28;20586;-71
2021/05/27 11:15:29;;;;;;;5.10;4.60;;;;;;;;;;5116823;28;20969;-71
2021/05/27 11:18:03;;;;;;;8.32;4.75;;;;;;;;;;5117234;28;20520;-72
2021/05/27 11:20:31;;;;;;;4.25;3.85;;;;;;;;;;5116607;28;20223;-73
2021/05/27 11:23:09;;;;;;;8.77;5.15;;;;;;;;;;5116515;28;20193;-71
2021/05/27 11:25:36;;;;;;;5.90;4.68;;;;;;;;;;5116979;28;20245;-72
2021/05/27 11:28:22;;;;;;;7.80;5.80;;;;;;;;;;5117180;28;20575;-72
2021/05/27 11:30:53;;;;;;;7.37;5.10;;;;;;;;;;5117025;28;20516;-72
2021/05/27 11:33:31;;;;;;;5.82;5.20;;;;;;;;;;5116448;28;20494;-72
2021/05/27 11:35:59;;;;;;;17.60;15.95;;;;;;;;;;5116451;28;20190;-71
2021/05/27 11:38:27;;;;;;;8.23;6.33;;;;;;;;;;5116741;28;20280;-72
2021/05/27 11:40:55;;;;;;;17.02;6.32;;;;;;;;;;5116865;28;20522;-71
2021/05/27 11:43:26;;;;;;;7.07;5.50;;;;;;;;;;5116750;28;20207;-72
2021/05/27 11:45:55;;;;;;;6.70;5.30;;;;;;;;;;5116550;28;20439;-71
2021/05/27 11:48:24;;;;;;;6.57;5.90;;;;;;;;;;5116346;28;20444;-71
2021/05/27 11:50:51;;;;;;;7.80;5.85;;;;;;;;;;5116285;28;20534;-71
2021/05/27 11:53:20;;;;;;;7.88;5.90;;;;;;;;;;5116601;28;20238;-70
2021/05/27 11:55:57;;;;;;;8.32;5.80;;;;;;;;;;5116199;28;20207;-69
2021/05/27 11:58:33;;;;;;;7.73;6.70;;;;;;;;;;5116016;28;20658;-70
2021/05/27 12:01:13;;;;;;;8.68;7.78;;;;;;;;;;5116156;28;20436;-70
2021/05/27 12:03:40;;;;;;;9.23;6.50;;;;;;;;;;5115624;28;20184;-70
2021/05/27 12:06:07;;;;;;;9.63;7.93;;;;;;;;;;5115786;28;20476;-70
2021/05/27 12:08:41;;;;;;;6.63;6.03;;;;;;;;;;5115655;28;20835;-70
2021/05/27 12:11:08;;;;;;;8.25;5.93;;;;;;;;;;5116509;28;20194;-70
2021/05/27 12:13:34;;;;;;;7.20;5.07;;;;;;;;;;5115979;28;20650;-71
2021/05/27 12:16:01;;;;;;;7.05;5.50;;;;;;;;;;5115079;28;20291;-71
2021/05/27 12:18:29;;;;;;;7.07;6.33;;;;;;;;;;5115321;28;20189;-70
2021/05/27 12:20:55;;;;;;;7.40;5.80;;;;;;;;;;5115663;28;20533;-70
2021/05/27 12:23:22;;;;;;;4.97;3.70;;;;;;;;;;5115809;28;20529;-70
2021/05/27 12:25:50;;;;;;;8.13;5.27;;;;;;;;;;5115167;28;20502;-72
2021/05/27 12:28:18;;;;;;;6.55;4.25;;;;;;;;;;5115377;28;20438;-71
2021/05/27 12:30:46;;;;;;;3.97;3.50;;;;;;;;;;5115314;28;20235;-70
2021/05/27 12:33:16;;;;;;;4.43;4.03;;;;;;;;;;5115512;28;20437;-71
2021/05/27 12:35:43;;;;;;;5.53;5.03;;;;;;;;;;5115512;28;20199;-70
2021/05/27 12:38:19;;;;;;;4.45;3.70;;;;;;;;;;5115389;28;20518;-71
2021/05/27 12:40:47;;;;;;;5.47;4.00;;;;;;;;;;5116268;28;20188;-70
2021/05/27 12:43:21;;;;;;;6.80;4.90;;;;;;;;;;5115189;28;20456;-72
2021/05/27 12:45:48;;;;;;;3.28;2.97;;;;;;;;;;5115460;28;20836;-68
2021/05/27 12:48:16;;;;;;;6.30;4.95;;;;;;;;;;5115176;28;20253;-68
2021/05/27 12:50:45;;;;;;;6.47;4.87;;;;;;;;;;5115166;28;20239;-68
2021/05/27 12:53:22;;;;;;;5.47;4.50;;;;;;;;;;5115061;28;20483;-69
2021/05/27 12:55:49;;;;;;;6.00;5.20;;;;;;;;;;5114890;28;20500;-69
2021/05/27 12:58:25;;;;;;;5.87;4.60;;;;;;;;;;5114811;28;20291;-68
2021/05/27 13:00:52;;;;;;;8.97;6.10;;;;;;;;;;5115899;28;20433;-69
2021/05/27 13:03:19;;;;;;;8.60;5.03;;;;;;;;;;5115431;28;20522;-68
2021/05/27 13:05:46;;;;;;;7.20;5.20;;;;;;;;;;5112182;28;20435;-69
2021/05/27 13:08:15;;;;;;;11.23;6.53;;;;;;;;;;5114670;28;20907;-69
2021/05/27 13:10:41;;;;;;;5.83;4.97;;;;;;;;;;5114887;28;20503;-69
2021/05/27 13:13:09;;;;;;;5.17;4.57;;;;;;;;;;5114451;28;20437;-69
2021/05/27 13:15:43;;;;;;;7.80;5.23;;;;;;;;;;5114606;28;20494;-69
2021/05/27 13:18:11;;;;;;;10.38;6.30;;;;;;;;;;5114704;28;20805;-69
2021/05/27 13:20:58;;;;;;;5.93;5.40;;;;;;;;;;5114479;28;20251;-69
2021/05/27 13:23:26;;;;;;;6.70;4.47;;;;;;;;;;5114463;28;20562;-69
2021/05/27 13:25:53;;;;;;;5.80;4.50;;;;;;;;;;5114316;28;20476;-69
2021/05/27 13:28:23;;;;;;;6.80;4.93;;;;;;;;;;5114574;28;20429;-69
2021/05/27 13:30:51;;;;;;;7.27;5.47;;;;;;;;;;5113894;28;20441;-69
2021/05/27 13:33:20;;;;;;;8.47;4.70;;;;;;;;;;5114064;28;20930;-70
2021/05/27 13:35:50;;;;;;;10.87;6.67;;;;;;;;;;5109859;28;20432;-70
2021/05/27 13:38:20;;;;;;;6.00;4.68;;;;;;;;;;5093541;28;20462;-69
2021/05/27 13:40:47;;;;;;;8.40;5.45;;;;;;;;;;5093902;28;20308;-70
2021/05/27 13:43:13;;;;;;;7.23;5.70;;;;;;;;;;5093966;28;20775;-69
2021/05/27 13:45:40;;;;;;;8.20;5.75;;;;;;;;;;5093724;28;20439;-69
2021/05/27 13:48:07;;;;;;;5.77;5.27;;;;;;;;;;5093963;28;20545;-70
2021/05/27 13:50:35;;;;;;;7.30;5.70;;;;;;;;;;5093792;28;20490;-68
2021/05/27 13:53:03;;;;;;;7.33;5.43;;;;;;;;;;5093803;28;20196;-69
2021/05/27 13:55:33;;;;;;;8.10;6.20;;;;;;;;;;5093868;28;20439;-68
2021/05/27 13:58:00;;;;;;;8.77;5.37;;;;;;;;;;5093445;28;20446;-68
2021/05/27 14:00:27;;;;;;;13.45;6.45;;;;;;;;;;5093192;28;20480;-68
2021/05/27 14:02:54;;;;;;;10.33;6.10;;;;;;;;;;5093161;28;20640;-69
2021/05/27 14:05:21;;;;;;;8.63;6.70;;;;;;;;;;5093350;28;20467;-68
2021/05/27 14:07:51;;;;;;;10.40;7.10;;;;;;;;;;5093604;28;20492;-69
2021/05/27 14:10:18;;;;;;;9.77;7.50;;;;;;;;;;5093425;28;20444;-68
2021/05/27 14:12:46;;;;;;;11.43;6.60;;;;;;;;;;5094028;28;20528;-68
2021/05/27 14:15:13;;;;;;;10.43;7.50;;;;;;;;;;5093115;28;20530;-69
2021/05/27 14:17:40;;;;;;;11.87;7.97;;;;;;;;;;5093080;28;20443;-68
2021/05/27 14:20:07;;;;;;;14.87;7.53;;;;;;;;;;5093836;28;20530;-68
2021/05/27 14:22:34;;;;;;;13.43;8.63;;;;;;;;;;5093083;28;20531;-68
2021/05/27 14:25:01;;;;;;;7.80;7.00;;;;;;;;;;5092995;28;20577;-68
2021/05/27 14:27:28;;;;;;;7.37;6.67;;;;;;;;;;5110220;28;20480;-69
2021/05/27 14:29:55;;;;;;;9.88;6.70;;;;;;;;;;5113352;28;20474;-67
2021/05/27 14:32:22;;;;;;;9.87;7.50;;;;;;;;;;5113570;28;20650;-67
2021/05/27 14:34:49;;;;;;;13.50;6.95;;;;;;;;;;5113277;28;20433;-68
2021/05/27 14:37:16;;;;;;;5.37;4.87;;;;;;;;;;5112921;28;20196;-68
2021/05/27 14:39:43;;;;;;;6.60;3.40;;;;;;;;;;5113505;28;20482;-69
2021/05/27 14:42:10;;;;;;;5.00;4.17;;;;;;;;;;5114068;28;20204;-69
2021/05/27 14:44:37;;;;;;;6.40;4.50;;;;;;;;;;5117354;28;20530;-69
2021/05/27 14:47:04;;;;;;;5.63;4.60;;;;;;;;;;5117345;28;20443;-68
2021/05/27 14:49:31;;;;;;;6.83;4.40;;;;;;;;;;5117609;28;20474;-71
2021/05/27 14:51:58;;;;;;;7.33;4.40;;;;;;;;;;5117119;28;20443;-69
2021/05/27 14:54:25;;;;;;;5.20;3.50;;;;;;;;;;5117898;28;20529;-69